sensor_id;sensor_type;location;lat;lon;timestamp;P1;durP1;ratioP1;P2;durP2;ratioP2
37841;SDS011;23682;53.508;10.476;2022-09-09T00:06:56;23.77;;;8.60;;
37841;SDS011;23682;53.508;10.476;2022-09-09T00:09:27;23.42;;;8.85;;
37841;SDS011;23682;53.508;10.476;2022-09-09T00:12:04;19.70;;;8.43;;
37841;SDS011;23682;53.508;10.476;2022-09-09T00:17:33;18.30;;;8.05;;
37841;SDS011;23682;53.508;10.476;2022-09-09T00:20:11;40.95;;;9.38;;
37841;SDS011;23682;53.508;10.476;2022-09-09T00:23:43;40.80;;;8.98;;
37841;SDS011;23682;53.508;10.476;2022-09-09T00:28:30;22.92;;;8.27;;
37841;SDS011;23682;53.508;10.476;2022-09-09T00:31:13;47.92;;;9.23;;
37841;SDS011;23682;53.508;10.476;2022-09-09T00:33:45;39.67;;;8.73;;
37841;SDS011;23682;53.508;10.476;2022-09-09T00:36:14;25.63;;;8.63;;
37841;SDS011;23682;53.508;10.476;2022-09-09T00:38:48;19.88;;;7.40;;
37841;SDS011;23682;53.508;10.476;2022-09-09T00:41:22;35.78;;;9.15;;
37841;SDS011;23682;53.508;10.476;2022-09-09T00:43:55;23.88;;;8.80;;
37841;SDS011;23682;53.508;10.476;2022-09-09T00:54:54;31.98;;;8.05;;
37841;SDS011;23682;53.508;10.476;2022-09-09T00:57:32;18.40;;;7.78;;
37841;SDS011;23682;53.508;10.476;2022-09-09T01:02:52;21.48;;;8.55;;
37841;SDS011;23682;53.508;10.476;2022-09-09T01:11:21;21.77;;;9.07;;
37841;SDS011;23682;53.508;10.476;2022-09-09T01:14:16;24.98;;;9.23;;
37841;SDS011;23682;53.508;10.476;2022-09-09T01:16:46;27.17;;;8.52;;
37841;SDS011;23682;53.508;10.476;2022-09-09T01:19:20;17.73;;;7.85;;
37841;SDS011;23682;53.508;10.476;2022-09-09T01:22:03;17.10;;;8.25;;
37841;SDS011;23682;53.508;10.476;2022-09-09T01:25:07;17.75;;;7.47;;
37841;SDS011;23682;53.508;10.476;2022-09-09T01:28:08;16.77;;;6.78;;
37841;SDS011;23682;53.508;10.476;2022-09-09T01:30:49;19.05;;;8.02;;
37841;SDS011;23682;53.508;10.476;2022-09-09T01:33:21;16.60;;;6.97;;
37841;SDS011;23682;53.508;10.476;2022-09-09T01:38:18;17.55;;;7.80;;
37841;SDS011;23682;53.508;10.476;2022-09-09T01:40:47;22.13;;;8.13;;
37841;SDS011;23682;53.508;10.476;2022-09-09T01:43:15;21.95;;;8.10;;
37841;SDS011;23682;53.508;10.476;2022-09-09T01:45:42;24.77;;;7.80;;
37841;SDS011;23682;53.508;10.476;2022-09-09T01:48:10;20.02;;;7.68;;
37841;SDS011;23682;53.508;10.476;2022-09-09T01:50:43;24.58;;;7.97;;
37841;SDS011;23682;53.508;10.476;2022-09-09T01:53:11;28.65;;;7.85;;
37841;SDS011;23682;53.508;10.476;2022-09-09T01:55:40;17.60;;;6.85;;
37841;SDS011;23682;53.508;10.476;2022-09-09T01:58:26;26.25;;;7.28;;
37841;SDS011;23682;53.508;10.476;2022-09-09T02:03:53;18.92;;;7.53;;
37841;SDS011;23682;53.508;10.476;2022-09-09T02:08:55;27.55;;;7.60;;
37841;SDS011;23682;53.508;10.476;2022-09-09T02:11:25;22.23;;;7.97;;
37841;SDS011;23682;53.508;10.476;2022-09-09T02:16:44;17.77;;;7.07;;
37841;SDS011;23682;53.508;10.476;2022-09-09T02:19:52;13.35;;;6.50;;
37841;SDS011;23682;53.508;10.476;2022-09-09T02:22:36;17.10;;;7.90;;
37841;SDS011;23682;53.508;10.476;2022-09-09T02:25:06;19.45;;;7.35;;
37841;SDS011;23682;53.508;10.476;2022-09-09T02:27:36;13.00;;;5.85;;
37841;SDS011;23682;53.508;10.476;2022-09-09T02:30:03;20.33;;;7.43;;
37841;SDS011;23682;53.508;10.476;2022-09-09T02:32:38;18.25;;;7.55;;
37841;SDS011;23682;53.508;10.476;2022-09-09T02:35:11;24.13;;;7.32;;
37841;SDS011;23682;53.508;10.476;2022-09-09T02:37:42;20.42;;;7.30;;
37841;SDS011;23682;53.508;10.476;2022-09-09T02:40:13;35.80;;;8.88;;
37841;SDS011;23682;53.508;10.476;2022-09-09T02:42:48;27.80;;;7.93;;
37841;SDS011;23682;53.508;10.476;2022-09-09T02:45:18;19.27;;;7.55;;
37841;SDS011;23682;53.508;10.476;2022-09-09T02:47:55;25.85;;;8.18;;
37841;SDS011;23682;53.508;10.476;2022-09-09T02:50:33;16.30;;;7.43;;
37841;SDS011;23682;53.508;10.476;2022-09-09T02:53:09;28.75;;;8.07;;
37841;SDS011;23682;53.508;10.476;2022-09-09T02:55:56;19.38;;;7.63;;
37841;SDS011;23682;53.508;10.476;2022-09-09T02:58:34;30.73;;;8.23;;
37841;SDS011;23682;53.508;10.476;2022-09-09T03:01:05;23.42;;;7.05;;
37841;SDS011;23682;53.508;10.476;2022-09-09T03:03:32;16.35;;;7.38;;
37841;SDS011;23682;53.508;10.476;2022-09-09T03:06:03;23.23;;;7.57;;
37841;SDS011;23682;53.508;10.476;2022-09-09T03:08:31;22.70;;;7.88;;
37841;SDS011;23682;53.508;10.476;2022-09-09T03:11:00;26.75;;;8.10;;
37841;SDS011;23682;53.508;10.476;2022-09-09T03:13:30;18.02;;;6.95;;
37841;SDS011;23682;53.508;10.476;2022-09-09T03:15:57;18.13;;;7.28;;
37841;SDS011;23682;53.508;10.476;2022-09-09T03:18:25;26.10;;;8.02;;
37841;SDS011;23682;53.508;10.476;2022-09-09T03:20:53;18.08;;;7.10;;
37841;SDS011;23682;53.508;10.476;2022-09-09T03:23:21;17.80;;;7.60;;
37841;SDS011;23682;53.508;10.476;2022-09-09T03:25:48;23.80;;;7.72;;
37841;SDS011;23682;53.508;10.476;2022-09-09T03:28:20;16.05;;;6.63;;
37841;SDS011;23682;53.508;10.476;2022-09-09T03:30:49;22.63;;;8.18;;
37841;SDS011;23682;53.508;10.476;2022-09-09T03:33:16;15.18;;;6.85;;
37841;SDS011;23682;53.508;10.476;2022-09-09T03:35:45;18.02;;;7.80;;
37841;SDS011;23682;53.508;10.476;2022-09-09T03:38:17;16.85;;;7.88;;
37841;SDS011;23682;53.508;10.476;2022-09-09T03:40:53;15.18;;;7.05;;
37841;SDS011;23682;53.508;10.476;2022-09-09T03:43:22;18.48;;;6.97;;
37841;SDS011;23682;53.508;10.476;2022-09-09T03:45:51;16.52;;;7.20;;
37841;SDS011;23682;53.508;10.476;2022-09-09T03:48:19;14.77;;;6.65;;
37841;SDS011;23682;53.508;10.476;2022-09-09T03:50:46;15.55;;;6.57;;
37841;SDS011;23682;53.508;10.476;2022-09-09T03:53:15;18.35;;;7.20;;
37841;SDS011;23682;53.508;10.476;2022-09-09T03:55:45;13.68;;;6.70;;
37841;SDS011;23682;53.508;10.476;2022-09-09T03:58:13;12.43;;;6.38;;
37841;SDS011;23682;53.508;10.476;2022-09-09T04:00:42;14.82;;;6.65;;
37841;SDS011;23682;53.508;10.476;2022-09-09T04:03:11;16.63;;;7.35;;
37841;SDS011;23682;53.508;10.476;2022-09-09T04:05:41;17.55;;;6.70;;
37841;SDS011;23682;53.508;10.476;2022-09-09T04:08:09;14.38;;;6.60;;
37841;SDS011;23682;53.508;10.476;2022-09-09T04:10:36;17.60;;;7.45;;
37841;SDS011;23682;53.508;10.476;2022-09-09T04:13:04;20.85;;;7.32;;
37841;SDS011;23682;53.508;10.476;2022-09-09T04:15:31;17.75;;;7.32;;
37841;SDS011;23682;53.508;10.476;2022-09-09T04:18:00;15.77;;;7.10;;
37841;SDS011;23682;53.508;10.476;2022-09-09T04:20:26;13.90;;;6.80;;
37841;SDS011;23682;53.508;10.476;2022-09-09T04:22:53;14.88;;;6.50;;
37841;SDS011;23682;53.508;10.476;2022-09-09T04:25:21;12.15;;;5.68;;
37841;SDS011;23682;53.508;10.476;2022-09-09T04:27:47;14.60;;;6.28;;
37841;SDS011;23682;53.508;10.476;2022-09-09T04:30:21;12.40;;;5.88;;
37841;SDS011;23682;53.508;10.476;2022-09-09T04:32:48;15.95;;;6.65;;
37841;SDS011;23682;53.508;10.476;2022-09-09T04:35:16;13.15;;;6.15;;
37841;SDS011;23682;53.508;10.476;2022-09-09T04:37:43;14.40;;;6.40;;
37841;SDS011;23682;53.508;10.476;2022-09-09T04:40:11;15.38;;;6.75;;
37841;SDS011;23682;53.508;10.476;2022-09-09T04:42:38;12.20;;;6.45;;
37841;SDS011;23682;53.508;10.476;2022-09-09T04:45:06;13.77;;;6.47;;
37841;SDS011;23682;53.508;10.476;2022-09-09T04:47:33;10.90;;;5.63;;
37841;SDS011;23682;53.508;10.476;2022-09-09T04:50:01;12.13;;;6.65;;
37841;SDS011;23682;53.508;10.476;2022-09-09T04:52:28;12.93;;;5.90;;
37841;SDS011;23682;53.508;10.476;2022-09-09T04:54:55;13.27;;;6.25;;
37841;SDS011;23682;53.508;10.476;2022-09-09T04:57:22;14.73;;;5.85;;
37841;SDS011;23682;53.508;10.476;2022-09-09T04:59:49;13.40;;;6.28;;
37841;SDS011;23682;53.508;10.476;2022-09-09T05:02:16;14.70;;;6.15;;
37841;SDS011;23682;53.508;10.476;2022-09-09T05:04:43;9.90;;;5.53;;
37841;SDS011;23682;53.508;10.476;2022-09-09T05:07:10;11.90;;;5.85;;
37841;SDS011;23682;53.508;10.476;2022-09-09T05:09:38;11.50;;;5.80;;
37841;SDS011;23682;53.508;10.476;2022-09-09T05:12:06;10.38;;;5.70;;
37841;SDS011;23682;53.508;10.476;2022-09-09T05:14:35;11.57;;;5.72;;
37841;SDS011;23682;53.508;10.476;2022-09-09T05:17:05;10.43;;;5.47;;
37841;SDS011;23682;53.508;10.476;2022-09-09T05:19:34;10.43;;;5.80;;
37841;SDS011;23682;53.508;10.476;2022-09-09T05:22:02;12.02;;;6.28;;
37841;SDS011;23682;53.508;10.476;2022-09-09T05:24:37;15.32;;;6.20;;
37841;SDS011;23682;53.508;10.476;2022-09-09T05:27:04;9.65;;;5.55;;
37841;SDS011;23682;53.508;10.476;2022-09-09T05:29:32;8.68;;;5.03;;
37841;SDS011;23682;53.508;10.476;2022-09-09T05:32:04;9.07;;;5.43;;
37841;SDS011;23682;53.508;10.476;2022-09-09T05:34:33;11.13;;;5.50;;
37841;SDS011;23682;53.508;10.476;2022-09-09T05:37:01;10.65;;;5.80;;
37841;SDS011;23682;53.508;10.476;2022-09-09T05:39:27;11.55;;;5.43;;
37841;SDS011;23682;53.508;10.476;2022-09-09T05:41:55;8.52;;;4.90;;
37841;SDS011;23682;53.508;10.476;2022-09-09T05:44:22;8.90;;;5.00;;
37841;SDS011;23682;53.508;10.476;2022-09-09T05:46:53;8.45;;;4.82;;
37841;SDS011;23682;53.508;10.476;2022-09-09T05:49:21;10.30;;;5.45;;
37841;SDS011;23682;53.508;10.476;2022-09-09T05:51:48;8.15;;;5.07;;
37841;SDS011;23682;53.508;10.476;2022-09-09T05:54:18;9.55;;;4.70;;
37841;SDS011;23682;53.508;10.476;2022-09-09T05:56:48;10.05;;;5.15;;
37841;SDS011;23682;53.508;10.476;2022-09-09T05:59:17;8.57;;;4.60;;
37841;SDS011;23682;53.508;10.476;2022-09-09T06:01:45;7.85;;;4.55;;
37841;SDS011;23682;53.508;10.476;2022-09-09T06:04:19;10.05;;;4.38;;
37841;SDS011;23682;53.508;10.476;2022-09-09T06:06:50;7.43;;;4.43;;
37841;SDS011;23682;53.508;10.476;2022-09-09T06:09:20;7.03;;;4.03;;
37841;SDS011;23682;53.508;10.476;2022-09-09T06:11:47;6.22;;;3.80;;
37841;SDS011;23682;53.508;10.476;2022-09-09T06:14:14;4.45;;;3.08;;
37841;SDS011;23682;53.508;10.476;2022-09-09T06:16:44;5.25;;;3.47;;
37841;SDS011;23682;53.508;10.476;2022-09-09T06:19:18;4.13;;;3.17;;
37841;SDS011;23682;53.508;10.476;2022-09-09T06:21:46;4.55;;;2.75;;
37841;SDS011;23682;53.508;10.476;2022-09-09T06:24:14;4.75;;;2.97;;
37841;SDS011;23682;53.508;10.476;2022-09-09T06:26:43;3.63;;;2.95;;
37841;SDS011;23682;53.508;10.476;2022-09-09T06:29:16;4.30;;;2.50;;
37841;SDS011;23682;53.508;10.476;2022-09-09T06:31:45;2.83;;;2.47;;
37841;SDS011;23682;53.508;10.476;2022-09-09T06:34:15;4.03;;;2.67;;
37841;SDS011;23682;53.508;10.476;2022-09-09T06:36:45;4.50;;;2.75;;
37841;SDS011;23682;53.508;10.476;2022-09-09T06:39:12;4.40;;;2.53;;
37841;SDS011;23682;53.508;10.476;2022-09-09T06:41:42;5.50;;;2.40;;
37841;SDS011;23682;53.508;10.476;2022-09-09T06:44:28;4.80;;;2.28;;
37841;SDS011;23682;53.508;10.476;2022-09-09T06:47:01;5.40;;;2.47;;
37841;SDS011;23682;53.508;10.476;2022-09-09T06:49:28;2.92;;;2.20;;
37841;SDS011;23682;53.508;10.476;2022-09-09T06:51:55;2.75;;;2.20;;
37841;SDS011;23682;53.508;10.476;2022-09-09T06:54:22;2.65;;;2.33;;
37841;SDS011;23682;53.508;10.476;2022-09-09T06:56:52;5.60;;;2.00;;
37841;SDS011;23682;53.508;10.476;2022-09-09T06:59:22;5.55;;;2.30;;
37841;SDS011;23682;53.508;10.476;2022-09-09T07:01:51;2.97;;;2.35;;
37841;SDS011;23682;53.508;10.476;2022-09-09T07:04:22;2.80;;;2.15;;
37841;SDS011;23682;53.508;10.476;2022-09-09T07:06:49;3.03;;;1.80;;
37841;SDS011;23682;53.508;10.476;2022-09-09T07:09:22;2.53;;;1.90;;
37841;SDS011;23682;53.508;10.476;2022-09-09T07:11:51;3.22;;;1.90;;
37841;SDS011;23682;53.508;10.476;2022-09-09T07:14:22;3.05;;;1.80;;
37841;SDS011;23682;53.508;10.476;2022-09-09T07:17:09;8.52;;;2.53;;
37841;SDS011;23682;53.508;10.476;2022-09-09T07:19:38;2.10;;;1.88;;
37841;SDS011;23682;53.508;10.476;2022-09-09T07:22:05;2.05;;;1.70;;
37841;SDS011;23682;53.508;10.476;2022-09-09T07:24:34;4.07;;;1.80;;
37841;SDS011;23682;53.508;10.476;2022-09-09T07:27:01;2.90;;;1.70;;
37841;SDS011;23682;53.508;10.476;2022-09-09T07:29:30;2.65;;;1.75;;
37841;SDS011;23682;53.508;10.476;2022-09-09T07:31:57;4.00;;;1.58;;
37841;SDS011;23682;53.508;10.476;2022-09-09T07:34:30;2.20;;;1.73;;
37841;SDS011;23682;53.508;10.476;2022-09-09T07:36:57;2.65;;;1.45;;
37841;SDS011;23682;53.508;10.476;2022-09-09T07:39:24;2.28;;;1.60;;
37841;SDS011;23682;53.508;10.476;2022-09-09T07:41:53;2.33;;;1.50;;
37841;SDS011;23682;53.508;10.476;2022-09-09T07:44:23;2.78;;;1.45;;
37841;SDS011;23682;53.508;10.476;2022-09-09T07:47:02;4.07;;;1.40;;
37841;SDS011;23682;53.508;10.476;2022-09-09T07:49:49;2.65;;;1.50;;
37841;SDS011;23682;53.508;10.476;2022-09-09T07:52:22;2.63;;;1.45;;
37841;SDS011;23682;53.508;10.476;2022-09-09T07:54:54;1.90;;;1.55;;
37841;SDS011;23682;53.508;10.476;2022-09-09T07:57:23;1.92;;;1.50;;
37841;SDS011;23682;53.508;10.476;2022-09-09T07:59:51;3.17;;;1.40;;
37841;SDS011;23682;53.508;10.476;2022-09-09T08:02:19;3.20;;;1.60;;
37841;SDS011;23682;53.508;10.476;2022-09-09T08:04:46;5.40;;;1.73;;
37841;SDS011;23682;53.508;10.476;2022-09-09T08:07:15;1.90;;;1.27;;
37841;SDS011;23682;53.508;10.476;2022-09-09T08:09:48;2.20;;;1.23;;
37841;SDS011;23682;53.508;10.476;2022-09-09T08:12:20;2.15;;;1.40;;
37841;SDS011;23682;53.508;10.476;2022-09-09T08:14:47;3.42;;;1.30;;
37841;SDS011;23682;53.508;10.476;2022-09-09T08:17:15;5.55;;;1.50;;
37841;SDS011;23682;53.508;10.476;2022-09-09T08:19:42;3.20;;;1.60;;
37841;SDS011;23682;53.508;10.476;2022-09-09T08:22:16;2.58;;;1.50;;
37841;SDS011;23682;53.508;10.476;2022-09-09T08:24:43;1.85;;;1.30;;
37841;SDS011;23682;53.508;10.476;2022-09-09T08:27:11;1.63;;;1.42;;
37841;SDS011;23682;53.508;10.476;2022-09-09T08:29:39;1.65;;;1.55;;
37841;SDS011;23682;53.508;10.476;2022-09-09T08:32:05;5.78;;;1.55;;
37841;SDS011;23682;53.508;10.476;2022-09-09T08:34:34;2.13;;;1.60;;
37841;SDS011;23682;53.508;10.476;2022-09-09T08:37:10;3.33;;;1.70;;
37841;SDS011;23682;53.508;10.476;2022-09-09T08:39:39;3.60;;;1.35;;
37841;SDS011;23682;53.508;10.476;2022-09-09T08:58:16;1.33;;;1.23;;
37841;SDS011;23682;53.508;10.476;2022-09-09T09:03:44;4.82;;;1.10;;
37841;SDS011;23682;53.508;10.476;2022-09-09T09:11:38;4.05;;;1.15;;
37841;SDS011;23682;53.508;10.476;2022-09-09T09:14:09;1.48;;;1.00;;
37841;SDS011;23682;53.508;10.476;2022-09-09T09:16:48;2.90;;;1.17;;
37841;SDS011;23682;53.508;10.476;2022-09-09T09:19:20;1.40;;;1.10;;
37841;SDS011;23682;53.508;10.476;2022-09-09T09:22:00;1.65;;;1.10;;
37841;SDS011;23682;53.508;10.476;2022-09-09T09:27:35;2.00;;;1.00;;
37841;SDS011;23682;53.508;10.476;2022-09-09T09:30:14;0.95;;;0.85;;
37841;SDS011;23682;53.508;10.476;2022-09-09T09:33:02;1.10;;;1.00;;
37841;SDS011;23682;53.508;10.476;2022-09-09T09:35:35;2.03;;;0.90;;
37841;SDS011;23682;53.508;10.476;2022-09-09T09:38:27;3.63;;;1.00;;
37841;SDS011;23682;53.508;10.476;2022-09-09T09:41:14;1.95;;;1.23;;
37841;SDS011;23682;53.508;10.476;2022-09-09T09:43:42;3.58;;;1.00;;
37841;SDS011;23682;53.508;10.476;2022-09-09T09:46:21;1.85;;;0.90;;
37841;SDS011;23682;53.508;10.476;2022-09-09T09:48:59;1.83;;;0.82;;
37841;SDS011;23682;53.508;10.476;2022-09-09T09:51:33;2.60;;;1.00;;
37841;SDS011;23682;53.508;10.476;2022-09-09T09:54:07;2.70;;;1.00;;
37841;SDS011;23682;53.508;10.476;2022-09-09T09:56:46;2.42;;;1.27;;
37841;SDS011;23682;53.508;10.476;2022-09-09T09:59:32;1.63;;;1.10;;
37841;SDS011;23682;53.508;10.476;2022-09-09T10:04:41;1.77;;;0.90;;
37841;SDS011;23682;53.508;10.476;2022-09-09T10:07:12;4.95;;;1.30;;
37841;SDS011;23682;53.508;10.476;2022-09-09T10:09:43;1.50;;;0.80;;
37841;SDS011;23682;53.508;10.476;2022-09-09T10:23:10;1.80;;;0.90;;
37841;SDS011;23682;53.508;10.476;2022-09-09T10:25:48;1.30;;;1.20;;
37841;SDS011;23682;53.508;10.476;2022-09-09T10:31:17;2.13;;;0.70;;
37841;SDS011;23682;53.508;10.476;2022-09-09T10:36:41;4.65;;;1.20;;
37841;SDS011;23682;53.508;10.476;2022-09-09T10:39:19;5.28;;;1.13;;
37841;SDS011;23682;53.508;10.476;2022-09-09T10:44:44;4.30;;;0.80;;
37841;SDS011;23682;53.508;10.476;2022-09-09T10:50:56;2.25;;;0.77;;
37841;SDS011;23682;53.508;10.476;2022-09-09T10:53:45;1.85;;;0.90;;
37841;SDS011;23682;53.508;10.476;2022-09-09T10:56:26;2.40;;;0.73;;
37841;SDS011;23682;53.508;10.476;2022-09-09T10:59:00;3.40;;;0.70;;
37841;SDS011;23682;53.508;10.476;2022-09-09T11:01:43;1.42;;;0.80;;
37841;SDS011;23682;53.508;10.476;2022-09-09T11:04:16;1.55;;;0.68;;
37841;SDS011;23682;53.508;10.476;2022-09-09T11:06:54;0.73;;;0.70;;
37841;SDS011;23682;53.508;10.476;2022-09-09T11:09:23;1.42;;;0.60;;
37841;SDS011;23682;53.508;10.476;2022-09-09T11:11:57;1.40;;;0.80;;
37841;SDS011;23682;53.508;10.476;2022-09-09T11:17:06;2.50;;;0.80;;
37841;SDS011;23682;53.508;10.476;2022-09-09T11:19:40;1.75;;;0.70;;
37841;SDS011;23682;53.508;10.476;2022-09-09T11:24:47;1.15;;;0.73;;
37841;SDS011;23682;53.508;10.476;2022-09-09T11:30:29;1.17;;;0.90;;
37841;SDS011;23682;53.508;10.476;2022-09-09T11:38:57;2.30;;;0.43;;
37841;SDS011;23682;53.508;10.476;2022-09-09T11:41:37;0.95;;;0.52;;
37841;SDS011;23682;53.508;10.476;2022-09-09T11:44:11;0.55;;;0.50;;
37841;SDS011;23682;53.508;10.476;2022-09-09T11:46:42;5.88;;;0.65;;
37841;SDS011;23682;53.508;10.476;2022-09-09T11:49:25;5.90;;;1.35;;
37841;SDS011;23682;53.508;10.476;2022-09-09T11:52:34;3.10;;;0.75;;
37841;SDS011;23682;53.508;10.476;2022-09-09T11:58:04;8.05;;;2.00;;
37841;SDS011;23682;53.508;10.476;2022-09-09T12:00:42;0.73;;;0.60;;
37841;SDS011;23682;53.508;10.476;2022-09-09T12:06:16;1.92;;;0.75;;
37841;SDS011;23682;53.508;10.476;2022-09-09T12:08:45;1.83;;;1.05;;
37841;SDS011;23682;53.508;10.476;2022-09-09T12:11:26;0.65;;;0.65;;
37841;SDS011;23682;53.508;10.476;2022-09-09T12:13:55;3.15;;;0.70;;
37841;SDS011;23682;53.508;10.476;2022-09-09T12:16:32;1.90;;;0.85;;
37841;SDS011;23682;53.508;10.476;2022-09-09T12:19:34;0.65;;;0.60;;
37841;SDS011;23682;53.508;10.476;2022-09-09T12:21:57;1.30;;;0.80;;
37841;SDS011;23682;53.508;10.476;2022-09-09T12:24:37;1.57;;;0.67;;
37841;SDS011;23682;53.508;10.476;2022-09-09T12:28:11;1.45;;;0.70;;
37841;SDS011;23682;53.508;10.476;2022-09-09T12:30:14;2.85;;;0.88;;
37841;SDS011;23682;53.508;10.476;2022-09-09T12:32:43;2.40;;;0.90;;
37841;SDS011;23682;53.508;10.476;2022-09-09T12:42:52;1.27;;;1.00;;
37841;SDS011;23682;53.508;10.476;2022-09-09T12:45:28;2.05;;;0.90;;
37841;SDS011;23682;53.508;10.476;2022-09-09T12:47:58;2.90;;;1.08;;
37841;SDS011;23682;53.508;10.476;2022-09-09T12:50:30;1.52;;;1.27;;
37841;SDS011;23682;53.508;10.476;2022-09-09T12:53:07;3.28;;;1.15;;
37841;SDS011;23682;53.508;10.476;2022-09-09T12:56:05;3.58;;;1.30;;
37841;SDS011;23682;53.508;10.476;2022-09-09T12:58:35;3.03;;;1.38;;
37841;SDS011;23682;53.508;10.476;2022-09-09T13:01:05;3.33;;;1.23;;
37841;SDS011;23682;53.508;10.476;2022-09-09T13:03:33;1.52;;;1.30;;
37841;SDS011;23682;53.508;10.476;2022-09-09T13:06:12;7.30;;;1.60;;
37841;SDS011;23682;53.508;10.476;2022-09-09T13:08:45;2.97;;;1.50;;
37841;SDS011;23682;53.508;10.476;2022-09-09T13:11:13;1.77;;;1.10;;
37841;SDS011;23682;53.508;10.476;2022-09-09T13:13:50;2.63;;;0.90;;
37841;SDS011;23682;53.508;10.476;2022-09-09T13:16:26;2.92;;;1.20;;
37841;SDS011;23682;53.508;10.476;2022-09-09T13:19:00;1.77;;;0.77;;
37841;SDS011;23682;53.508;10.476;2022-09-09T13:21:36;1.60;;;0.60;;
37841;SDS011;23682;53.508;10.476;2022-09-09T13:24:05;0.55;;;0.55;;
37841;SDS011;23682;53.508;10.476;2022-09-09T13:26:58;0.55;;;0.55;;
37841;SDS011;23682;53.508;10.476;2022-09-09T13:29:55;0.70;;;0.65;;
37841;SDS011;23682;53.508;10.476;2022-09-09T13:32:23;1.83;;;0.75;;
37841;SDS011;23682;53.508;10.476;2022-09-09T13:35:00;2.30;;;0.90;;
37841;SDS011;23682;53.508;10.476;2022-09-09T13:40:03;0.60;;;0.57;;
37841;SDS011;23682;53.508;10.476;2022-09-09T13:42:42;1.52;;;0.50;;
37841;SDS011;23682;53.508;10.476;2022-09-09T13:45:16;0.38;;;0.38;;
37841;SDS011;23682;53.508;10.476;2022-09-09T13:47:46;2.70;;;0.90;;
37841;SDS011;23682;53.508;10.476;2022-09-09T13:50:22;0.93;;;0.60;;
37841;SDS011;23682;53.508;10.476;2022-09-09T13:52:54;0.67;;;0.67;;
37841;SDS011;23682;53.508;10.476;2022-09-09T13:55:28;3.22;;;1.60;;
37841;SDS011;23682;53.508;10.476;2022-09-09T13:57:59;3.75;;;0.80;;
37841;SDS011;23682;53.508;10.476;2022-09-09T14:00:34;1.35;;;0.90;;
37841;SDS011;23682;53.508;10.476;2022-09-09T14:03:01;1.33;;;0.60;;
37841;SDS011;23682;53.508;10.476;2022-09-09T14:05:30;1.75;;;0.73;;
37841;SDS011;23682;53.508;10.476;2022-09-09T14:07:58;0.80;;;0.73;;
37841;SDS011;23682;53.508;10.476;2022-09-09T14:10:26;1.63;;;0.63;;
37841;SDS011;23682;53.508;10.476;2022-09-09T14:12:53;1.95;;;0.60;;
37841;SDS011;23682;53.508;10.476;2022-09-09T14:15:20;1.42;;;0.80;;
37841;SDS011;23682;53.508;10.476;2022-09-09T14:17:47;1.00;;;0.60;;
37841;SDS011;23682;53.508;10.476;2022-09-09T14:20:14;0.88;;;0.75;;
37841;SDS011;23682;53.508;10.476;2022-09-09T14:22:43;0.85;;;0.50;;
37841;SDS011;23682;53.508;10.476;2022-09-09T14:25:10;0.82;;;0.60;;
37841;SDS011;23682;53.508;10.476;2022-09-09T14:27:39;0.50;;;0.50;;
37841;SDS011;23682;53.508;10.476;2022-09-09T14:30:06;0.82;;;0.50;;
37841;SDS011;23682;53.508;10.476;2022-09-09T14:32:34;5.40;;;0.60;;
37841;SDS011;23682;53.508;10.476;2022-09-09T14:35:00;0.70;;;0.68;;
37841;SDS011;23682;53.508;10.476;2022-09-09T14:37:27;1.25;;;0.50;;
37841;SDS011;23682;53.508;10.476;2022-09-09T14:39:54;2.40;;;0.68;;
37841;SDS011;23682;53.508;10.476;2022-09-09T14:42:21;7.15;;;0.70;;
37841;SDS011;23682;53.508;10.476;2022-09-09T14:44:48;3.08;;;0.60;;
37841;SDS011;23682;53.508;10.476;2022-09-09T14:47:15;1.85;;;0.70;;
37841;SDS011;23682;53.508;10.476;2022-09-09T14:49:41;2.03;;;0.68;;
37841;SDS011;23682;53.508;10.476;2022-09-09T14:52:12;3.58;;;1.40;;
37841;SDS011;23682;53.508;10.476;2022-09-09T14:54:39;5.55;;;1.40;;
37841;SDS011;23682;53.508;10.476;2022-09-09T14:57:06;5.35;;;1.17;;
37841;SDS011;23682;53.508;10.476;2022-09-09T14:59:33;1.33;;;0.70;;
37841;SDS011;23682;53.508;10.476;2022-09-09T15:02:00;2.58;;;0.70;;
37841;SDS011;23682;53.508;10.476;2022-09-09T15:04:30;2.83;;;0.82;;
37841;SDS011;23682;53.508;10.476;2022-09-09T15:06:57;1.23;;;0.88;;
37841;SDS011;23682;53.508;10.476;2022-09-09T15:09:24;3.08;;;0.73;;
37841;SDS011;23682;53.508;10.476;2022-09-09T15:11:51;2.60;;;0.52;;
37841;SDS011;23682;53.508;10.476;2022-09-09T15:14:18;4.40;;;0.88;;
37841;SDS011;23682;53.508;10.476;2022-09-09T15:16:50;2.85;;;0.55;;
37841;SDS011;23682;53.508;10.476;2022-09-09T15:19:17;1.02;;;0.73;;
37841;SDS011;23682;53.508;10.476;2022-09-09T15:21:44;1.63;;;0.75;;
37841;SDS011;23682;53.508;10.476;2022-09-09T15:24:11;2.83;;;0.60;;
37841;SDS011;23682;53.508;10.476;2022-09-09T15:26:40;0.88;;;0.60;;
37841;SDS011;23682;53.508;10.476;2022-09-09T15:29:07;5.68;;;0.90;;
37841;SDS011;23682;53.508;10.476;2022-09-09T15:31:34;0.95;;;0.60;;
37841;SDS011;23682;53.508;10.476;2022-09-09T15:34:04;5.40;;;0.85;;
37841;SDS011;23682;53.508;10.476;2022-09-09T15:36:33;3.58;;;0.80;;
37841;SDS011;23682;53.508;10.476;2022-09-09T15:39:06;0.90;;;0.60;;
37841;SDS011;23682;53.508;10.476;2022-09-09T15:41:34;3.90;;;1.02;;
37841;SDS011;23682;53.508;10.476;2022-09-09T15:44:02;2.13;;;0.60;;
37841;SDS011;23682;53.508;10.476;2022-09-09T15:46:32;1.73;;;0.70;;
37841;SDS011;23682;53.508;10.476;2022-09-09T15:49:10;2.47;;;0.60;;
37841;SDS011;23682;53.508;10.476;2022-09-09T15:51:43;1.88;;;0.55;;
37841;SDS011;23682;53.508;10.476;2022-09-09T15:54:15;2.10;;;0.60;;
37841;SDS011;23682;53.508;10.476;2022-09-09T15:56:44;1.33;;;0.50;;
37841;SDS011;23682;53.508;10.476;2022-09-09T15:59:14;4.47;;;0.88;;
37841;SDS011;23682;53.508;10.476;2022-09-09T16:01:42;4.25;;;1.10;;
37841;SDS011;23682;53.508;10.476;2022-09-09T16:04:10;3.05;;;0.68;;
37841;SDS011;23682;53.508;10.476;2022-09-09T16:06:37;1.27;;;0.65;;
37841;SDS011;23682;53.508;10.476;2022-09-09T16:09:05;1.98;;;0.77;;
37841;SDS011;23682;53.508;10.476;2022-09-09T16:11:35;13.23;;;1.10;;
37841;SDS011;23682;53.508;10.476;2022-09-09T16:14:03;3.15;;;1.08;;
37841;SDS011;23682;53.508;10.476;2022-09-09T16:16:31;0.98;;;0.68;;
37841;SDS011;23682;53.508;10.476;2022-09-09T16:18:59;0.93;;;0.80;;
37841;SDS011;23682;53.508;10.476;2022-09-09T16:21:32;2.35;;;0.70;;
37841;SDS011;23682;53.508;10.476;2022-09-09T16:24:09;1.08;;;0.70;;
37841;SDS011;23682;53.508;10.476;2022-09-09T16:26:39;2.55;;;0.60;;
37841;SDS011;23682;53.508;10.476;2022-09-09T16:29:14;4.45;;;1.05;;
37841;SDS011;23682;53.508;10.476;2022-09-09T16:31:41;1.85;;;0.63;;
37841;SDS011;23682;53.508;10.476;2022-09-09T16:34:09;1.30;;;0.60;;
37841;SDS011;23682;53.508;10.476;2022-09-09T16:36:37;1.45;;;0.63;;
37841;SDS011;23682;53.508;10.476;2022-09-09T16:39:09;2.05;;;0.77;;
37841;SDS011;23682;53.508;10.476;2022-09-09T16:41:38;0.95;;;0.70;;
37841;SDS011;23682;53.508;10.476;2022-09-09T16:44:07;1.65;;;0.77;;
37841;SDS011;23682;53.508;10.476;2022-09-09T16:46:37;1.65;;;0.80;;
37841;SDS011;23682;53.508;10.476;2022-09-09T16:49:06;1.25;;;0.80;;
37841;SDS011;23682;53.508;10.476;2022-09-09T16:51:38;1.20;;;0.90;;
37841;SDS011;23682;53.508;10.476;2022-09-09T16:54:07;2.75;;;1.10;;
37841;SDS011;23682;53.508;10.476;2022-09-09T16:56:36;1.40;;;0.77;;
37841;SDS011;23682;53.508;10.476;2022-09-09T16:59:05;5.28;;;1.10;;
37841;SDS011;23682;53.508;10.476;2022-09-09T17:01:35;0.68;;;0.68;;